createdAt,value
2019-03-24T00:00:51.650Z,10.00
2019-03-24T00:03:20.338Z,9.90
2019-03-24T00:05:49.120Z,9.90
2019-03-24T00:08:17.850Z,9.80
2019-03-24T00:10:46.697Z,9.80
2019-03-24T00:13:15.264Z,9.80
2019-03-24T00:15:43.874Z,9.80
2019-03-24T00:18:12.528Z,9.70
2019-03-24T00:20:41.199Z,9.70
2019-03-24T00:23:09.817Z,9.70
2019-03-24T00:25:38.426Z,9.70
2019-03-24T00:28:07.223Z,9.70
2019-03-24T00:30:35.881Z,9.60
2019-03-24T00:33:04.623Z,9.60
2019-03-24T00:35:33.188Z,9.60
2019-03-24T00:38:01.746Z,9.50
2019-03-24T00:40:30.548Z,9.50
2019-03-24T00:42:59.177Z,9.40
2019-03-24T00:45:36.525Z,9.40
2019-03-24T00:47:58.009Z,9.50
2019-03-24T00:50:26.646Z,9.40
2019-03-24T00:52:55.447Z,9.50
2019-03-24T00:55:24.395Z,9.40
2019-03-24T00:57:53.447Z,9.40
2019-03-24T01:00:43.296Z,9.30
2019-03-24T01:03:12.098Z,9.40
2019-03-24T01:05:41.005Z,9.30
2019-03-24T01:08:09.785Z,9.30
2019-03-24T01:10:38.621Z,9.20
2019-03-24T01:13:07.201Z,9.20
2019-03-24T01:15:35.889Z,9.10
2019-03-24T01:18:04.583Z,9.20
2019-03-24T01:20:33.209Z,9.10
2019-03-24T01:23:01.869Z,9.10
2019-03-24T01:25:31.053Z,9.10
2019-03-24T01:27:59.704Z,9.10
2019-03-24T01:30:28.390Z,9.00
2019-03-24T01:32:58.181Z,9.00
2019-03-24T01:35:26.876Z,8.90
2019-03-24T01:37:55.440Z,8.90
2019-03-24T01:40:25.192Z,8.90
2019-03-24T01:42:54.001Z,8.90
2019-03-24T01:45:25.556Z,8.90
2019-03-24T01:47:54.022Z,8.90
2019-03-24T01:50:22.742Z,8.80
2019-03-24T01:52:51.276Z,8.80
2019-03-24T01:55:24.699Z,8.80
2019-03-24T01:57:53.309Z,8.70
2019-03-24T02:00:22.103Z,8.70
2019-03-24T02:02:53.433Z,8.70
2019-03-24T02:05:22.055Z,8.70
2019-03-24T02:07:50.604Z,8.60
2019-03-24T02:10:19.334Z,8.70
2019-03-24T02:12:48.077Z,8.60
2019-03-24T02:15:16.838Z,8.60
2019-03-24T02:17:45.442Z,8.60
2019-03-24T02:20:14.141Z,8.50
2019-03-24T02:22:42.790Z,8.50
2019-03-24T02:25:11.674Z,8.50
2019-03-24T02:27:40.336Z,8.50
2019-03-24T02:30:09.597Z,8.50
2019-03-24T02:32:38.431Z,8.40
2019-03-24T02:35:07.553Z,8.40
2019-03-24T02:37:36.238Z,8.40
2019-03-24T02:40:06.786Z,8.40
2019-03-24T02:42:35.385Z,8.40
2019-03-24T02:45:05.550Z,8.40
2019-03-24T02:47:34.285Z,8.40
2019-03-24T02:50:02.834Z,8.40
2019-03-24T02:52:31.391Z,8.30
2019-03-24T02:54:59.944Z,8.30
2019-03-24T02:57:28.614Z,8.20
2019-03-24T02:59:57.186Z,8.20
2019-03-24T03:02:25.719Z,8.20
2019-03-24T03:04:54.346Z,8.20
2019-03-24T03:07:23.059Z,8.10
2019-03-24T03:09:51.684Z,8.10
2019-03-24T03:12:20.309Z,8.10
2019-03-24T03:14:48.997Z,8.10
2019-03-24T03:17:17.754Z,8.10
2019-03-24T03:19:46.449Z,8.10
2019-03-24T03:22:15.059Z,8.10
2019-03-24T03:24:43.685Z,8.00
2019-03-24T03:27:14.624Z,8.00
2019-03-24T03:29:43.169Z,8.00
2019-03-24T03:32:11.710Z,8.00
2019-03-24T03:34:40.310Z,8.00
2019-03-24T03:37:08.979Z,7.90
2019-03-24T03:39:37.645Z,7.90
2019-03-24T03:42:06.310Z,7.90
2019-03-24T03:44:34.935Z,7.90
2019-03-24T03:47:03.557Z,7.90
2019-03-24T03:49:32.181Z,7.80
2019-03-24T03:52:00.787Z,7.80
2019-03-24T03:54:29.314Z,7.80
2019-03-24T03:56:57.887Z,7.80
2019-03-24T03:59:26.503Z,7.70
2019-03-24T04:01:55.134Z,7.70
2019-03-24T04:04:23.682Z,7.70
2019-03-24T04:06:52.281Z,7.70
2019-03-24T04:09:21.088Z,7.70
2019-03-24T04:11:49.666Z,7.70
2019-03-24T04:14:18.206Z,7.70
2019-03-24T04:16:46.928Z,7.70
2019-03-24T04:19:15.538Z,7.70
2019-03-24T04:21:44.164Z,7.70
2019-03-24T04:24:12.806Z,7.70
2019-03-24T04:26:41.439Z,7.70
2019-03-24T04:29:09.990Z,7.70
2019-03-24T04:31:38.546Z,7.70
2019-03-24T04:34:07.083Z,7.60
2019-03-24T04:36:35.653Z,7.70
2019-03-24T04:39:05.725Z,7.60
2019-03-24T04:41:34.291Z,7.60
2019-03-24T04:44:02.885Z,7.60
2019-03-24T04:46:31.422Z,7.50
2019-03-24T04:48:59.981Z,7.50
2019-03-24T04:51:28.569Z,7.50
2019-03-24T04:53:57.214Z,7.40
2019-03-24T04:56:25.750Z,7.50
2019-03-24T04:58:54.301Z,7.40
2019-03-24T05:01:22.928Z,7.40
2019-03-24T05:03:51.523Z,7.40
2019-03-24T05:06:20.613Z,7.40
2019-03-24T05:08:50.041Z,7.40
2019-03-24T05:11:18.656Z,7.30
2019-03-24T05:13:47.253Z,7.30
2019-03-24T05:16:15.778Z,7.20
2019-03-24T05:18:44.344Z,7.20
2019-03-24T05:21:12.951Z,7.20
2019-03-24T05:23:41.570Z,7.10
2019-03-24T05:26:10.154Z,7.10
2019-03-24T05:28:38.626Z,7.10
2019-03-24T05:31:07.194Z,7.10
2019-03-24T05:33:35.805Z,7.00
2019-03-24T05:36:04.449Z,7.00
2019-03-24T05:38:33.060Z,7.00
2019-03-24T05:41:01.629Z,7.00
2019-03-24T05:43:30.170Z,6.90
2019-03-24T05:45:58.687Z,6.90
2019-03-24T05:48:27.278Z,6.90
2019-03-24T05:50:56.044Z,6.90
2019-03-24T05:53:24.533Z,6.90
2019-03-24T05:55:53.163Z,7.00
2019-03-24T05:58:21.702Z,7.00
2019-03-24T06:00:50.339Z,7.00
2019-03-24T06:03:18.898Z,7.00
2019-03-24T06:05:47.514Z,7.10
2019-03-24T06:08:15.992Z,7.20
2019-03-24T06:10:44.527Z,7.30
2019-03-24T06:13:13.261Z,7.40
2019-03-24T06:15:41.758Z,7.40
2019-03-24T06:18:10.372Z,7.50
2019-03-24T06:20:38.949Z,7.60
2019-03-24T06:23:07.526Z,7.70
2019-03-24T06:25:36.130Z,7.80
2019-03-24T06:28:04.823Z,7.80
2019-03-24T06:30:33.447Z,7.90
2019-03-24T06:33:02.092Z,7.80
2019-03-24T06:35:30.692Z,7.80
2019-03-24T06:37:59.419Z,8.00
2019-03-24T06:40:27.986Z,8.20
2019-03-24T06:42:56.517Z,8.40
2019-03-24T06:45:28.610Z,8.50
2019-03-24T06:47:58.242Z,8.50
2019-03-24T06:50:25.744Z,8.60
2019-03-24T06:52:54.359Z,8.70
2019-03-24T06:55:23.618Z,8.90
2019-03-24T06:57:52.205Z,9.00
2019-03-24T07:00:20.844Z,9.30
2019-03-24T07:02:49.470Z,9.30
2019-03-24T07:05:18.166Z,9.30
2019-03-24T07:07:47.438Z,9.40
2019-03-24T07:10:16.138Z,9.50
2019-03-24T07:12:44.707Z,9.70
2019-03-24T07:15:13.475Z,9.90
2019-03-24T07:17:42.093Z,10.10
2019-03-24T07:20:10.993Z,10.10
2019-03-24T07:22:39.692Z,10.10
2019-03-24T07:25:08.743Z,10.30
2019-03-24T07:27:37.354Z,10.40
2019-03-24T07:30:08.027Z,10.60
2019-03-24T07:32:36.727Z,10.60
2019-03-24T07:35:07.453Z,10.60
2019-03-24T07:37:36.356Z,10.70
2019-03-24T07:40:07.446Z,10.90
2019-03-24T07:42:36.074Z,11.20
2019-03-24T07:45:07.163Z,11.30
2019-03-24T07:47:35.746Z,11.30
2019-03-24T07:50:09.231Z,11.50
2019-03-24T07:52:37.982Z,11.30
2019-03-24T07:55:07.362Z,11.40
2019-03-24T07:57:35.995Z,11.50
2019-03-24T08:00:06.385Z,11.70
2019-03-24T08:02:35.006Z,11.70
2019-03-24T08:05:04.284Z,11.80
2019-03-24T08:07:33.457Z,11.80
2019-03-24T08:10:02.113Z,11.80
2019-03-24T08:12:30.740Z,12.00
2019-03-24T08:15:00.077Z,12.20
2019-03-24T08:17:28.796Z,12.30
2019-03-24T08:19:57.654Z,12.60
2019-03-24T08:22:26.346Z,13.00
2019-03-24T08:24:54.987Z,13.20
2019-03-24T08:27:23.541Z,13.50
2019-03-24T08:29:52.183Z,14.00
2019-03-24T08:32:21.656Z,14.00
2019-03-24T08:34:51.141Z,14.40
2019-03-24T08:37:19.896Z,15.10
2019-03-24T08:39:48.485Z,15.20
2019-03-24T08:42:17.833Z,15.50
2019-03-24T08:44:46.524Z,15.80
2019-03-24T08:47:15.351Z,16.50
2019-03-24T08:49:46.795Z,16.50
2019-03-24T08:52:15.447Z,17.00
2019-03-24T08:54:44.242Z,17.00
2019-03-24T08:57:12.793Z,17.30
2019-03-24T08:59:41.393Z,17.40
2019-03-24T09:02:10.263Z,17.70
2019-03-24T09:04:38.821Z,18.50
2019-03-24T09:07:07.385Z,18.00
2019-03-24T09:09:36.202Z,18.70
2019-03-24T09:12:05.063Z,17.50
2019-03-24T09:14:33.686Z,17.50
2019-03-24T09:17:02.327Z,18.60
2019-03-24T09:19:31.182Z,18.80
2019-03-24T09:22:01.887Z,19.10
2019-03-24T09:24:30.573Z,19.10
2019-03-24T09:26:59.341Z,19.10
2019-03-24T09:29:27.854Z,19.00
2019-03-24T09:31:56.560Z,18.30
2019-03-24T09:34:25.294Z,18.90
2019-03-24T09:36:53.836Z,19.20
2019-03-24T09:39:22.940Z,20.20
2019-03-24T09:41:52.253Z,20.90
2019-03-24T09:44:21.126Z,20.90
2019-03-24T09:46:49.829Z,20.40
2019-03-24T09:49:18.534Z,21.00
2019-03-24T09:51:49.011Z,20.90
2019-03-24T09:54:17.692Z,20.80
2019-03-24T09:56:46.384Z,20.20
2019-03-24T09:59:14.962Z,20.80
2019-03-24T10:01:44.998Z,21.10
2019-03-24T10:04:13.726Z,21.40
2019-03-24T10:06:42.921Z,21.00
2019-03-24T10:09:11.562Z,21.50
2019-03-24T10:11:40.205Z,21.50
2019-03-24T10:14:09.030Z,21.10
2019-03-24T10:16:37.737Z,21.20
2019-03-24T10:19:13.930Z,21.20
2019-03-24T10:21:36.891Z,20.70
2019-03-24T10:24:07.901Z,21.10
2019-03-24T10:26:37.123Z,21.70
2019-03-24T10:29:05.967Z,21.90
2019-03-24T10:31:34.753Z,23.30
2019-03-24T10:34:03.549Z,23.40
2019-03-24T10:36:34.177Z,23.00
2019-03-24T10:39:02.537Z,24.00
2019-03-24T10:41:31.195Z,22.50
2019-03-24T10:43:59.774Z,22.50
2019-03-24T10:46:28.476Z,23.00
2019-03-24T10:48:57.899Z,23.40
2019-03-24T10:51:26.589Z,23.90
2019-03-24T10:53:55.315Z,24.00
2019-03-24T10:56:24.061Z,24.80
2019-03-24T10:58:52.944Z,23.30
2019-03-24T11:01:21.948Z,23.80
2019-03-24T11:03:50.690Z,23.40
2019-03-24T11:06:20.575Z,23.30
2019-03-24T11:08:49.282Z,23.60
2019-03-24T11:11:18.298Z,23.90
2019-03-24T11:13:46.870Z,24.00
2019-03-24T11:16:15.667Z,24.30
2019-03-24T11:18:44.980Z,25.00
2019-03-24T11:21:13.652Z,25.30
2019-03-24T11:23:42.465Z,25.50
2019-03-24T11:26:11.580Z,25.10
2019-03-24T11:28:40.875Z,24.70
2019-03-24T11:31:09.586Z,24.20
2019-03-24T11:33:38.232Z,25.70
2019-03-24T11:36:07.911Z,25.00
2019-03-24T11:38:38.075Z,25.00
2019-03-24T11:41:06.999Z,25.10
2019-03-24T11:43:35.859Z,24.80
2019-03-24T11:46:08.599Z,25.50
2019-03-24T11:48:37.336Z,25.60
2019-03-24T11:51:06.160Z,26.10
2019-03-24T11:53:34.874Z,24.30
2019-03-24T11:56:04.054Z,24.40
2019-03-24T11:58:34.435Z,24.20
2019-03-24T12:01:03.041Z,25.00
2019-03-24T12:03:32.702Z,25.50
2019-03-24T12:06:01.599Z,24.80
2019-03-24T12:08:30.359Z,24.80
2019-03-24T12:10:59.146Z,24.40
2019-03-24T12:13:27.993Z,24.70
2019-03-24T12:15:56.726Z,24.40
2019-03-24T12:18:25.312Z,24.30
2019-03-24T12:20:53.921Z,24.40
2019-03-24T12:23:22.603Z,25.10
2019-03-24T12:25:53.155Z,25.30
2019-03-24T12:28:21.695Z,25.60
2019-03-24T12:30:50.729Z,26.10
2019-03-24T12:33:19.407Z,25.80
2019-03-24T12:35:48.345Z,26.30
2019-03-24T12:38:18.458Z,25.80
2019-03-24T12:40:47.362Z,25.50
2019-03-24T12:43:27.716Z,25.80
2019-03-24T12:45:57.059Z,25.40
2019-03-24T12:48:28.260Z,26.00
2019-03-24T12:50:57.154Z,26.10
2019-03-24T12:53:26.347Z,26.50
2019-03-24T12:55:57.290Z,26.80
2019-03-24T12:58:25.963Z,25.60
2019-03-24T13:00:55.119Z,24.40
2019-03-24T13:03:23.901Z,25.70
2019-03-24T13:05:52.647Z,25.70
2019-03-24T13:08:21.266Z,25.50
2019-03-24T13:10:50.183Z,24.40
2019-03-24T13:13:18.993Z,25.10
2019-03-24T13:15:48.265Z,24.80
2019-03-24T13:18:16.961Z,24.80
2019-03-24T13:20:45.675Z,24.60
2019-03-24T13:23:14.240Z,24.70
2019-03-24T13:25:43.127Z,24.90
2019-03-24T13:28:11.755Z,25.00
2019-03-24T13:30:40.452Z,24.60
2019-03-24T13:33:09.281Z,24.80
2019-03-24T13:35:37.846Z,24.50
2019-03-24T13:38:06.583Z,25.00
2019-03-24T13:40:35.249Z,25.90
2019-03-24T13:43:03.871Z,25.40
2019-03-24T13:45:32.712Z,23.70
2019-03-24T13:48:01.422Z,24.10
2019-03-24T13:50:31.546Z,23.30
2019-03-24T13:53:00.702Z,23.60
2019-03-24T13:55:29.422Z,23.70
2019-03-24T13:57:58.124Z,23.10
2019-03-24T14:00:26.937Z,22.50
2019-03-24T14:02:55.499Z,21.70
2019-03-24T14:05:24.194Z,21.40
2019-03-24T14:07:52.827Z,20.90
2019-03-24T14:10:21.350Z,20.50
2019-03-24T14:12:49.993Z,20.40
2019-03-24T14:15:18.636Z,20.60
2019-03-24T14:17:47.387Z,20.40
2019-03-24T14:20:18.960Z,19.90
2019-03-24T14:22:47.670Z,19.70
2019-03-24T14:25:16.525Z,19.20
2019-03-24T14:27:45.212Z,18.90
2019-03-24T14:30:14.211Z,18.90
2019-03-24T14:32:42.847Z,18.80
2019-03-24T14:35:11.599Z,18.90
2019-03-24T14:37:40.352Z,19.20
2019-03-24T14:40:09.109Z,18.90
2019-03-24T14:42:37.804Z,18.80
2019-03-24T14:45:07.781Z,19.10
2019-03-24T14:47:36.785Z,18.80
2019-03-24T14:50:08.093Z,18.50
2019-03-24T14:52:36.799Z,18.40
2019-03-24T14:55:06.042Z,18.50
2019-03-24T14:57:34.552Z,18.50
2019-03-24T15:00:03.341Z,18.40
2019-03-24T15:02:31.881Z,18.50
2019-03-24T15:05:00.606Z,18.40
2019-03-24T15:07:29.249Z,18.50
2019-03-24T15:09:57.968Z,18.40
2019-03-24T15:12:34.362Z,18.10
2019-03-24T15:15:02.749Z,18.20
2019-03-24T15:20:08.222Z,18.30
2019-03-24T15:22:36.932Z,18.20
2019-03-24T15:25:06.432Z,18.10
2019-03-24T15:27:35.118Z,18.20
2019-03-24T15:30:08.078Z,18.20
2019-03-24T15:32:36.862Z,18.20
2019-03-24T15:35:06.950Z,18.10
2019-03-24T15:37:35.530Z,18.00
2019-03-24T15:40:05.474Z,17.90
2019-03-24T15:42:34.175Z,17.90
2019-03-24T15:45:02.892Z,17.80
2019-03-24T15:47:31.543Z,17.80
2019-03-24T15:50:00.328Z,17.70
2019-03-24T15:52:29.013Z,17.80
2019-03-24T15:58:29.271Z,17.70
2019-03-24T16:00:57.925Z,17.70
2019-03-24T16:03:26.539Z,17.60
2019-03-24T16:05:56.498Z,17.60
2019-03-24T16:08:25.906Z,17.50
2019-03-24T16:10:54.522Z,17.50
2019-03-24T16:13:28.666Z,17.50
2019-03-24T16:16:06.433Z,17.40
2019-03-24T16:18:37.581Z,17.30
2019-03-24T16:21:06.851Z,17.20
2019-03-24T16:23:40.328Z,17.10
2019-03-24T16:26:49.365Z,17.10
2019-03-24T16:29:18.085Z,17.10
2019-03-24T16:34:40.766Z,17.00
2019-03-24T16:37:10.997Z,16.90
2019-03-24T16:39:44.123Z,16.80
2019-03-24T16:42:14.422Z,16.90
2019-03-24T16:44:43.081Z,16.90
2019-03-24T16:47:11.674Z,16.70
2019-03-24T16:49:40.307Z,16.70
2019-03-24T16:52:26.835Z,16.60
2019-03-24T16:58:02.206Z,16.60
2019-03-24T17:00:35.400Z,16.70
2019-03-24T17:03:04.158Z,16.80
2019-03-24T17:05:34.641Z,16.60
2019-03-24T17:08:03.378Z,16.60
2019-03-24T17:16:56.914Z,16.60
2019-03-24T17:19:25.790Z,16.40
2019-03-24T17:21:54.465Z,16.20
2019-03-24T17:24:23.261Z,16.20
2019-03-24T17:27:03.579Z,16.20
2019-03-24T17:29:32.125Z,16.20
2019-03-24T17:32:03.774Z,16.10
2019-03-24T17:34:38.389Z,16.00
2019-03-24T17:37:07.136Z,16.00
2019-03-24T17:39:35.806Z,15.90
2019-03-24T17:42:04.449Z,15.80
2019-03-24T17:44:33.205Z,15.80
2019-03-24T17:47:06.421Z,15.70
2019-03-24T17:49:36.640Z,15.60
2019-03-24T17:52:06.936Z,15.40
2019-03-24T17:54:37.122Z,15.30
2019-03-24T17:57:05.762Z,15.20
2019-03-24T17:59:38.800Z,15.10
2019-03-24T18:02:14.242Z,15.00
2019-03-24T18:04:37.781Z,15.10
2019-03-24T18:07:06.653Z,15.00
2019-03-24T18:09:35.422Z,14.90
2019-03-24T18:12:04.221Z,14.70
2019-03-24T18:14:32.926Z,14.60
2019-03-24T18:17:01.630Z,14.60
2019-03-24T18:19:30.384Z,14.60
2019-03-24T18:21:58.994Z,14.50
2019-03-24T18:24:27.837Z,14.40
2019-03-24T18:26:58.103Z,14.30
2019-03-24T18:29:28.796Z,14.20
2019-03-24T18:31:58.840Z,14.20
2019-03-24T18:34:27.340Z,14.20
2019-03-24T18:36:55.990Z,14.10
2019-03-24T18:42:41.166Z,14.00
2019-03-24T18:45:12.997Z,13.90
2019-03-24T18:48:15.000Z,13.90
2019-03-24T18:51:29.872Z,13.80
2019-03-24T18:57:11.126Z,13.60
2019-03-24T18:59:54.929Z,13.60
2019-03-24T19:02:25.577Z,13.50
2019-03-24T19:11:38.182Z,13.40
2019-03-24T19:14:24.398Z,13.40
2019-03-24T19:16:58.981Z,13.40
2019-03-24T19:19:29.809Z,13.20
2019-03-24T19:25:20.712Z,13.00
2019-03-24T19:28:42.669Z,12.90
2019-03-24T19:31:45.943Z,12.90
2019-03-24T19:34:06.231Z,12.90
2019-03-24T19:36:36.304Z,12.90
2019-03-24T19:39:09.281Z,12.80
2019-03-24T19:44:58.417Z,12.70
2019-03-24T19:47:27.308Z,12.70
2019-03-24T19:49:56.809Z,12.60
2019-03-24T19:52:25.455Z,12.60
2019-03-24T19:54:54.720Z,12.60
2019-03-24T19:57:23.544Z,12.60
2019-03-24T19:59:52.290Z,12.50
2019-03-24T20:02:21.193Z,12.50
2019-03-24T20:04:52.591Z,12.50
2019-03-24T20:17:06.193Z,12.20
2019-03-24T20:19:34.781Z,12.10
2019-03-24T20:22:03.489Z,12.10
2019-03-24T20:24:34.993Z,12.10
2019-03-24T20:27:04.451Z,12.20
2019-03-24T20:29:34.149Z,12.10
2019-03-24T20:32:02.809Z,12.10
2019-03-24T20:34:31.681Z,11.90
2019-03-24T20:37:00.188Z,11.80
2019-03-24T20:39:28.989Z,11.70
2019-03-24T20:41:58.709Z,11.70
2019-03-24T20:44:27.346Z,11.60
2019-03-24T20:46:56.298Z,11.60
2019-03-24T20:49:24.966Z,11.60
2019-03-24T20:51:54.043Z,11.60
2019-03-24T20:54:22.745Z,11.50
2019-03-24T20:56:51.578Z,11.50
2019-03-24T20:59:20.452Z,11.40
2019-03-24T21:01:49.161Z,11.40
2019-03-24T21:04:20.341Z,11.40
2019-03-24T21:06:50.199Z,11.40
2019-03-24T21:09:22.297Z,11.40
2019-03-24T21:11:51.837Z,11.40
2019-03-24T21:14:21.804Z,11.30
2019-03-24T21:16:51.662Z,11.30
2019-03-24T21:19:22.045Z,11.40
2019-03-24T21:21:51.489Z,11.30
2019-03-24T21:24:24.070Z,11.20
2019-03-24T21:26:54.293Z,11.20
2019-03-24T21:29:24.111Z,11.20
2019-03-24T21:31:55.185Z,11.20
2019-03-24T21:34:24.825Z,11.20
2019-03-24T21:36:57.254Z,11.20
2019-03-24T21:39:26.703Z,11.20
2019-03-24T21:41:55.964Z,11.20
2019-03-24T21:44:24.881Z,11.00
2019-03-24T21:46:56.232Z,11.00
2019-03-24T21:49:26.370Z,10.90
2019-03-24T21:51:55.987Z,10.90
2019-03-24T21:54:25.318Z,10.90
2019-03-24T21:56:54.627Z,10.80
2019-03-24T21:59:24.118Z,10.70
2019-03-24T22:01:55.211Z,10.70
2019-03-24T22:04:25.006Z,10.60
2019-03-24T22:06:55.074Z,10.60
2019-03-24T22:09:28.640Z,10.60
2019-03-24T22:11:58.011Z,10.50
2019-03-24T22:14:29.849Z,10.40
2019-03-24T22:17:00.704Z,10.40
2019-03-24T22:23:11.675Z,10.40
2019-03-24T22:28:51.472Z,10.40
2019-03-24T22:44:49.819Z,10.30
2019-03-24T22:53:31.177Z,10.20
2019-03-24T22:56:02.024Z,10.20
2019-03-24T22:58:37.216Z,10.20
2019-03-24T23:01:33.260Z,10.20
2019-03-24T23:18:37.798Z,9.80
